Time;durP1;ratioP1;P1;durP2;ratioP2;P2;SDS_P1;SDS_P2;PMS_P1;PMS_P2;Temp;Humidity;BMP_temperature;BMP_pressure;BME280_temperature;BME280_humidity;BME280_pressure;Samples;Min_cycle;Max_cycle;Signal;HPM_P1;HPM_P2
2023/05/25 00:00:25;;;;;;;10.13;6.28;;;15.80;99.90;;;;;;5033806;28;20030;-76
2023/05/25 00:02:53;;;;;;;10.25;5.90;;;15.70;99.90;;;;;;5016769;28;20030;-75
2023/05/25 00:05:19;;;;;;;10.30;5.97;;;15.60;99.90;;;;;;5033314;28;20041;-75
2023/05/25 00:07:46;;;;;;;12.20;6.20;;;15.60;99.90;;;;;;5032871;28;20363;-75
2023/05/25 00:10:12;;;;;;;8.13;5.78;;;15.60;99.90;;;;;;5016333;28;20383;-75
2023/05/25 00:12:38;;;;;;;10.85;6.07;;;15.60;99.90;;;;;;5033204;28;20025;-75
2023/05/25 00:15:05;;;;;;;8.05;5.60;;;15.60;99.90;;;;;;5032482;28;20025;-75
2023/05/25 00:17:32;;;;;;;10.60;6.38;;;15.50;99.90;;;;;;5032708;28;20033;-76
2023/05/25 00:20:07;;;;;;;6.95;5.53;;;15.50;99.90;;;;;;5034254;28;20048;-76
2023/05/25 00:22:34;;;;;;;11.57;5.80;;;15.50;99.90;;;;;;5033426;28;20029;-76
2023/05/25 00:25:01;;;;;;;9.10;5.60;;;15.50;99.90;;;;;;5033065;28;20467;-75
2023/05/25 00:27:27;;;;;;;11.00;6.30;;;15.40;99.90;;;;;;5033679;28;20038;-75
2023/05/25 00:29:53;;;;;;;6.13;5.40;;;15.40;99.90;;;;;;5034056;28;20048;-76
2023/05/25 00:32:19;;;;;;;9.65;5.68;;;15.30;99.90;;;;;;5031779;28;20026;-76
2023/05/25 00:34:46;;;;;;;9.68;5.70;;;15.20;99.90;;;;;;5033858;28;20021;-76
2023/05/25 00:37:12;;;;;;;8.93;5.65;;;15.20;99.90;;;;;;5031946;28;20033;-76
2023/05/25 00:39:38;;;;;;;8.13;5.80;;;15.20;99.90;;;;;;5032809;28;20052;-76
2023/05/25 00:42:05;;;;;;;8.35;5.78;;;15.20;99.90;;;;;;5033412;28;20025;-76
2023/05/25 00:44:31;;;;;;;13.98;5.90;;;15.20;99.90;;;;;;5016025;28;20389;-76
2023/05/25 00:46:57;;;;;;;10.15;5.85;;;15.20;99.90;;;;;;5034411;28;20053;-76
2023/05/25 00:49:24;;;;;;;10.30;5.95;;;15.10;99.90;;;;;;5048866;28;20029;-76
2023/05/25 00:51:50;;;;;;;9.02;6.13;;;15.00;99.90;;;;;;5031804;28;20414;-77
2023/05/25 00:54:17;;;;;;;7.22;5.93;;;15.10;99.90;;;;;;5032285;28;20025;-76
2023/05/25 00:56:49;;;;;;;13.65;6.85;;;15.10;99.90;;;;;;5032140;28;20030;-75
2023/05/25 00:59:19;;;;;;;12.18;5.75;;;15.20;99.90;;;;;;5032192;28;20030;-75
2023/05/25 01:01:45;;;;;;;9.05;5.78;;;15.00;99.90;;;;;;5031897;28;20044;-76
2023/05/25 01:04:13;;;;;;;12.48;6.35;;;15.00;99.90;;;;;;5032054;28;20034;-76
2023/05/25 01:06:42;;;;;;;8.80;5.85;;;14.90;99.90;;;;;;5031388;28;20037;-75
2023/05/25 01:09:08;;;;;;;10.25;6.30;;;14.90;99.90;;;;;;5032162;28;20049;-76
2023/05/25 01:11:35;;;;;;;10.20;6.53;;;14.90;99.90;;;;;;5031618;28;20022;-76
2023/05/25 01:14:01;;;;;;;11.60;6.40;;;14.90;99.90;;;;;;5032148;28;20037;-76
2023/05/25 01:16:28;;;;;;;12.05;5.80;;;15.00;99.90;;;;;;5030279;28;20037;-76
2023/05/25 01:18:54;;;;;;;11.80;6.47;;;14.90;99.90;;;;;;5031900;28;20034;-76
2023/05/25 01:21:36;;;;;;;11.98;5.97;;;14.90;99.90;;;;;;5031300;28;20025;-76
2023/05/25 01:24:29;;;;;;;7.28;6.13;;;14.90;99.90;;;;;;5031819;28;20037;-75
2023/05/25 01:27:08;;;;;;;9.25;6.22;;;14.90;99.90;;;;;;5023754;28;20044;-76
2023/05/25 01:29:34;;;;;;;10.98;6.40;;;14.90;99.90;;;;;;5031719;28;20036;-76
2023/05/25 01:32:01;;;;;;;10.00;5.93;;;14.90;99.90;;;;;;5030906;28;20038;-76
2023/05/25 01:34:27;;;;;;;8.10;5.60;;;14.80;99.90;;;;;;5014969;28;20025;-75
2023/05/25 01:36:53;;;;;;;10.25;6.15;;;14.70;99.90;;;;;;5031210;28;20029;-76
2023/05/25 01:39:21;;;;;;;10.80;6.38;;;14.60;99.90;;;;;;5030950;28;20502;-76
2023/05/25 01:41:47;;;;;;;13.13;6.25;;;14.60;99.90;;;;;;5031313;28;20390;-76
2023/05/25 01:44:13;;;;;;;9.65;5.55;;;14.60;99.90;;;;;;5032530;28;20482;-76
2023/05/25 01:46:39;;;;;;;9.50;5.97;;;14.60;99.90;;;;;;5031038;28;20053;-76
2023/05/25 01:49:11;;;;;;;11.60;6.28;;;14.70;99.90;;;;;;5050084;28;20048;-75
2023/05/25 01:51:43;;;;;;;9.25;5.43;;;14.80;99.90;;;;;;5063717;28;20123;-76
2023/05/25 01:54:18;;;;;;;8.23;5.55;;;14.80;99.90;;;;;;5047225;28;20104;-75
2023/05/25 01:56:45;;;;;;;9.25;5.65;;;14.80;99.90;;;;;;5051056;28;20030;-75
2023/05/25 01:59:12;;;;;;;10.45;5.57;;;14.70;99.90;;;;;;5011641;28;20041;-76
2023/05/25 02:01:38;;;;;;;11.40;5.88;;;14.60;99.90;;;;;;5013573;28;20034;-76
2023/05/25 02:04:04;;;;;;;9.70;5.80;;;14.70;99.90;;;;;;5039409;28;20030;-76
2023/05/25 02:06:30;;;;;;;7.85;5.78;;;14.60;99.90;;;;;;5020401;28;20041;-76
2023/05/25 02:08:56;;;;;;;9.43;5.95;;;14.60;99.90;;;;;;5034947;28;20041;-76
2023/05/25 02:11:23;;;;;;;13.20;5.68;;;14.70;99.90;;;;;;5022910;28;20037;-76
2023/05/25 02:13:49;;;;;;;7.28;5.68;;;14.60;99.90;;;;;;5030846;28;20033;-76
2023/05/25 02:16:15;;;;;;;12.27;5.85;;;14.60;99.90;;;;;;5029986;28;20064;-75
2023/05/25 02:18:43;;;;;;;9.50;6.10;;;14.60;99.90;;;;;;5029504;28;20041;-75
2023/05/25 02:21:10;;;;;;;11.43;5.63;;;14.60;99.90;;;;;;5030736;28;20034;-76
2023/05/25 02:23:36;;;;;;;6.50;4.90;;;14.60;99.90;;;;;;5029533;28;20814;-76
2023/05/25 02:26:02;;;;;;;9.70;5.78;;;14.50;99.90;;;;;;5029247;28;20033;-76
2023/05/25 02:28:28;;;;;;;10.18;5.72;;;14.40;99.90;;;;;;5047860;28;20084;-76
2023/05/25 02:30:54;;;;;;;9.35;5.85;;;14.40;99.90;;;;;;5034210;28;20038;-75
2023/05/25 02:33:20;;;;;;;11.50;5.10;;;14.40;99.90;;;;;;5033009;28;20387;-75
2023/05/25 02:35:46;;;;;;;10.02;5.75;;;14.40;99.90;;;;;;5034525;28;20038;-76
2023/05/25 02:38:12;;;;;;;9.35;5.72;;;14.30;99.90;;;;;;5036087;28;20358;-76
2023/05/25 02:40:39;;;;;;;7.47;5.07;;;14.30;99.90;;;;;;5019003;28;20025;-76
2023/05/25 02:43:05;;;;;;;9.63;5.43;;;14.30;99.90;;;;;;5036260;28;20378;-76
2023/05/25 02:45:31;;;;;;;10.52;5.72;;;14.30;99.90;;;;;;5067099;28;20030;-76
2023/05/25 02:47:57;;;;;;;8.70;5.50;;;14.40;99.90;;;;;;5045397;28;20072;-75
2023/05/25 02:50:23;;;;;;;9.18;5.50;;;14.40;99.90;;;;;;5043996;28;20025;-76
2023/05/25 02:52:49;;;;;;;11.07;5.22;;;14.40;99.90;;;;;;5034560;28;20060;-76
2023/05/25 02:55:17;;;;;;;9.77;5.30;;;14.40;99.90;;;;;;5035384;28;20029;-76
2023/05/25 02:57:43;;;;;;;10.48;5.97;;;14.40;99.90;;;;;;5034550;28;20497;-76
2023/05/25 03:00:13;;;;;;;8.48;5.85;;;14.40;99.90;;;;;;5033626;28;20040;-75
2023/05/25 03:02:39;;;;;;;9.63;6.53;;;14.20;99.90;;;;;;5035355;28;20025;-76
2023/05/25 03:05:06;;;;;;;9.20;5.65;;;14.20;99.90;;;;;;5035621;28;20394;-75
2023/05/25 03:07:32;;;;;;;10.45;5.70;;;14.40;99.90;;;;;;5035107;28;20394;-76
2023/05/25 03:09:58;;;;;;;12.10;6.10;;;14.40;99.90;;;;;;5017658;28;20044;-76
2023/05/25 03:12:24;;;;;;;11.65;6.18;;;14.50;99.90;;;;;;5033967;28;20041;-76
2023/05/25 03:14:50;;;;;;;15.77;6.75;;;14.60;99.90;;;;;;5034095;28;20041;-76
2023/05/25 03:17:16;;;;;;;12.68;5.93;;;14.60;99.90;;;;;;5034354;28;20033;-76
2023/05/25 03:19:43;;;;;;;10.75;6.43;;;14.70;99.90;;;;;;5034249;28;20037;-76
2023/05/25 03:22:09;;;;;;;12.73;6.38;;;14.60;99.90;;;;;;5033658;28;20038;-76
2023/05/25 03:24:35;;;;;;;7.93;5.60;;;14.50;99.90;;;;;;5035132;28;20033;-75
2023/05/25 03:27:01;;;;;;;16.88;6.63;;;14.40;99.90;;;;;;5034923;28;20390;-76
2023/05/25 03:29:27;;;;;;;12.02;5.50;;;14.50;99.90;;;;;;5033883;28;20033;-76
2023/05/25 03:31:53;;;;;;;10.32;6.63;;;14.50;99.90;;;;;;5016029;28;20044;-75
2023/05/25 03:34:19;;;;;;;13.00;5.90;;;14.40;99.90;;;;;;5033887;28;20030;-76
2023/05/25 03:36:46;;;;;;;11.57;6.32;;;14.50;99.90;;;;;;5034720;28;20037;-76
2023/05/25 03:39:12;;;;;;;12.27;6.35;;;14.60;99.90;;;;;;5032969;28;20029;-76
2023/05/25 03:41:38;;;;;;;10.77;6.07;;;14.50;99.90;;;;;;5033214;28;20037;-76
2023/05/25 03:44:04;;;;;;;10.60;6.50;;;14.50;99.90;;;;;;5034880;28;20508;-76
2023/05/25 03:46:31;;;;;;;9.05;6.32;;;14.60;99.90;;;;;;5015925;28;20074;-76
2023/05/25 03:48:57;;;;;;;11.90;6.13;;;14.50;99.90;;;;;;5054057;28;20060;-76
2023/05/25 03:51:23;;;;;;;9.48;5.55;;;14.60;99.90;;;;;;5025858;28;20420;-76
2023/05/25 03:53:49;;;;;;;13.60;6.38;;;14.40;99.90;;;;;;5034576;28;20037;-76
2023/05/25 03:56:15;;;;;;;10.23;6.13;;;14.40;99.90;;;;;;5034607;28;20029;-76
2023/05/25 03:58:41;;;;;;;11.55;6.43;;;14.30;99.90;;;;;;5033414;28;20029;-75
2023/05/25 04:01:09;;;;;;;12.00;6.35;;;14.30;99.90;;;;;;5033499;28;20025;-76
2023/05/25 04:03:35;;;;;;;11.57;6.05;;;14.40;99.90;;;;;;5016894;28;20049;-76
2023/05/25 04:06:01;;;;;;;19.67;6.38;;;14.40;99.90;;;;;;5032839;28;20037;-76
2023/05/25 04:08:27;;;;;;;12.05;6.22;;;14.20;99.90;;;;;;5033268;28;20501;-76
2023/05/25 04:10:53;;;;;;;10.35;6.05;;;14.20;99.90;;;;;;5032670;28;20052;-76
2023/05/25 04:13:19;;;;;;;9.73;6.13;;;14.20;99.90;;;;;;5032884;28;20033;-76
2023/05/25 04:15:46;;;;;;;13.02;7.00;;;14.10;99.90;;;;;;5015624;28;20037;-76
2023/05/25 04:18:12;;;;;;;14.00;6.78;;;14.10;99.90;;;;;;5033035;28;20420;-76
2023/05/25 04:20:38;;;;;;;13.80;6.65;;;14.20;99.90;;;;;;5033846;28;20037;-76
2023/05/25 04:23:04;;;;;;;12.35;6.78;;;14.10;99.90;;;;;;5034251;28;20025;-76
2023/05/25 04:25:31;;;;;;;16.23;7.20;;;14.00;99.90;;;;;;5015853;28;20769;-76
2023/05/25 04:27:57;;;;;;;11.77;6.82;;;14.10;99.90;;;;;;5016004;28;20042;-76
2023/05/25 04:30:23;;;;;;;15.73;7.00;;;14.00;99.90;;;;;;5015442;28;20034;-76
2023/05/25 04:32:49;;;;;;;15.52;7.20;;;13.90;99.90;;;;;;5032749;28;20033;-76
2023/05/25 04:35:15;;;;;;;11.70;6.22;;;13.90;99.90;;;;;;5033566;28;20026;-76
2023/05/25 04:37:41;;;;;;;14.15;7.05;;;13.80;99.90;;;;;;5049006;28;20045;-76
2023/05/25 04:40:12;;;;;;;12.55;7.47;;;13.80;99.90;;;;;;5049256;28;20025;-76
2023/05/25 04:42:41;;;;;;;13.55;7.00;;;13.90;99.90;;;;;;5033546;28;20390;-76
2023/05/25 04:45:09;;;;;;;9.80;5.97;;;13.90;99.90;;;;;;5048737;28;20033;-75
2023/05/25 04:47:36;;;;;;;17.48;7.13;;;13.90;99.90;;;;;;5053297;28;20382;-77
2023/05/25 04:50:03;;;;;;;16.23;7.32;;;14.00;99.90;;;;;;5031676;28;20045;-76
2023/05/25 04:52:29;;;;;;;15.05;7.05;;;14.00;99.90;;;;;;5048027;28;20049;-76
2023/05/25 04:54:56;;;;;;;14.05;7.25;;;13.90;99.90;;;;;;5032175;28;20053;-77
2023/05/25 04:57:22;;;;;;;12.73;7.38;;;14.00;99.90;;;;;;5048040;28;20481;-75
2023/05/25 04:59:49;;;;;;;11.73;7.40;;;14.00;99.90;;;;;;5033403;28;20056;-76
2023/05/25 05:02:15;;;;;;;15.07;7.70;;;14.00;99.90;;;;;;5047812;28;20037;-75
2023/05/25 05:04:41;;;;;;;13.73;6.88;;;13.90;99.90;;;;;;5048451;28;20380;-75
2023/05/25 05:07:07;;;;;;;14.95;7.25;;;13.90;99.90;;;;;;5031569;28;20047;-76
2023/05/25 05:09:34;;;;;;;12.68;6.85;;;13.90;99.90;;;;;;5048314;28;20064;-76
2023/05/25 05:12:00;;;;;;;17.30;7.32;;;14.00;99.90;;;;;;5049351;28;20030;-76
2023/05/25 05:14:26;;;;;;;11.38;7.30;;;13.90;99.90;;;;;;5028382;28;20041;-75
2023/05/25 05:16:52;;;;;;;12.27;7.38;;;14.10;99.90;;;;;;5030915;28;20501;-76
2023/05/25 05:19:19;;;;;;;13.07;7.40;;;14.10;99.90;;;;;;5048502;28;20037;-76
2023/05/25 05:21:45;;;;;;;15.32;8.82;;;14.00;99.90;;;;;;5047954;28;20026;-76
2023/05/25 05:24:11;;;;;;;17.63;7.78;;;14.00;99.90;;;;;;5048228;28;20048;-75
2023/05/25 05:26:40;;;;;;;15.35;6.82;;;14.00;99.90;;;;;;5047617;28;20029;-75
2023/05/25 05:29:06;;;;;;;14.40;6.72;;;14.20;99.90;;;;;;5031679;28;20052;-76
2023/05/25 05:31:33;;;;;;;17.52;7.60;;;14.40;99.90;;;;;;5031902;28;20101;-76
2023/05/25 05:33:59;;;;;;;14.52;7.68;;;14.40;99.90;;;;;;5032590;28;20044;-76
2023/05/25 05:36:28;;;;;;;14.82;7.32;;;14.50;99.90;;;;;;5032548;28;20372;-76
2023/05/25 05:38:54;;;;;;;12.38;7.53;;;14.40;99.90;;;;;;5013309;28;20053;-75
2023/05/25 05:41:20;;;;;;;17.67;8.25;;;14.20;99.90;;;;;;5021776;28;20048;-76
2023/05/25 05:43:46;;;;;;;16.88;8.73;;;14.10;99.90;;;;;;5031313;28;20402;-76
2023/05/25 05:46:13;;;;;;;18.10;8.05;;;14.30;99.90;;;;;;5030282;28;20049;-76
2023/05/25 05:48:39;;;;;;;14.48;8.25;;;14.30;99.90;;;;;;5047945;28;20501;-75
2023/05/25 05:51:05;;;;;;;17.33;8.75;;;14.20;99.90;;;;;;5043406;28;20033;-75
2023/05/25 05:53:31;;;;;;;14.90;8.02;;;14.20;99.90;;;;;;5031178;28;20033;-76
2023/05/25 05:55:58;;;;;;;16.00;7.82;;;14.20;99.90;;;;;;5031761;28;20030;-75
2023/05/25 05:58:28;;;;;;;15.70;8.10;;;14.20;99.90;;;;;;5031284;28;20026;-76
2023/05/25 06:00:55;;;;;;;18.40;9.20;;;14.00;99.90;;;;;;5014159;28;20037;-76
2023/05/25 06:03:24;;;;;;;17.02;8.93;;;14.00;99.90;;;;;;5030472;28;20033;-76
2023/05/25 06:05:50;;;;;;;13.85;8.00;;;14.00;99.90;;;;;;5030804;28;20033;-75
2023/05/25 06:08:16;;;;;;;15.52;8.57;;;14.10;99.90;;;;;;5014227;28;20037;-75
2023/05/25 06:10:42;;;;;;;19.23;8.93;;;14.10;99.90;;;;;;5030590;28;20490;-76
2023/05/25 06:13:08;;;;;;;16.52;9.52;;;14.10;99.90;;;;;;5031043;28;20037;-76
2023/05/25 06:15:34;;;;;;;18.77;8.43;;;14.20;99.90;;;;;;5030273;28;20423;-76
2023/05/25 06:18:01;;;;;;;14.50;7.82;;;14.30;99.90;;;;;;5030948;28;20030;-76
2023/05/25 06:20:27;;;;;;;16.73;8.52;;;14.40;99.90;;;;;;5030940;28;20025;-75
2023/05/25 06:22:53;;;;;;;14.50;9.57;;;14.50;99.90;;;;;;5032039;28;20044;-75
2023/05/25 06:25:19;;;;;;;13.80;8.35;;;14.70;99.90;;;;;;5030252;28;20029;-76
2023/05/25 06:27:45;;;;;;;21.55;9.30;;;14.70;99.90;;;;;;5032110;28;20044;-75
2023/05/25 06:30:11;;;;;;;17.65;9.50;;;14.80;99.90;;;;;;5013377;28;20053;-77
2023/05/25 06:32:37;;;;;;;20.25;9.15;;;14.80;99.90;;;;;;5030837;28;20029;-75
2023/05/25 06:35:04;;;;;;;15.18;9.73;;;15.00;99.90;;;;;;4998016;28;20042;-75
2023/05/25 06:37:36;;;;;;;16.27;8.43;;;15.10;99.90;;;;;;5030296;28;20037;-75
2023/05/25 06:40:10;;;;;;;18.10;8.88;;;15.10;99.90;;;;;;5030288;28;20430;-75
2023/05/25 06:42:36;;;;;;;15.55;8.98;;;15.40;99.90;;;;;;5030820;28;20025;-75
2023/05/25 06:45:04;;;;;;;20.17;9.93;;;15.50;99.90;;;;;;5030806;28;20052;-76
2023/05/25 06:47:30;;;;;;;14.43;9.60;;;15.60;99.90;;;;;;5036904;28;20049;-75
2023/05/25 06:49:57;;;;;;;20.25;10.52;;;15.70;99.90;;;;;;5033699;28;20421;-77
2023/05/25 06:52:23;;;;;;;19.08;8.38;;;15.90;99.90;;;;;;5032056;28;20018;-76
2023/05/25 06:54:49;;;;;;;17.75;8.40;;;15.90;99.90;;;;;;5031648;28;20038;-76
2023/05/25 06:57:15;;;;;;;14.00;8.98;;;15.90;99.90;;;;;;5031412;28;20470;-76
2023/05/25 06:59:41;;;;;;;15.73;9.70;;;15.90;99.90;;;;;;5030555;28;20041;-75
2023/05/25 07:02:07;;;;;;;14.65;10.27;;;16.00;99.90;;;;;;5029789;28;20489;-76
2023/05/25 07:04:33;;;;;;;14.00;7.30;;;15.90;99.90;;;;;;5013906;28;20053;-75
2023/05/25 07:06:59;;;;;;;14.93;8.82;;;16.00;99.90;;;;;;5030238;28;20493;-76
2023/05/25 07:09:25;;;;;;;18.15;9.98;;;16.10;99.90;;;;;;5030091;28;20067;-76
2023/05/25 07:11:52;;;;;;;9.45;6.88;;;16.40;99.90;;;;;;5031470;28;20022;-76
2023/05/25 07:14:18;;;;;;;16.83;9.98;;;16.40;99.90;;;;;;5015142;28;20041;-76
2023/05/25 07:16:44;;;;;;;16.77;9.57;;;16.50;99.90;;;;;;5033420;28;20030;-76
2023/05/25 07:19:10;;;;;;;13.43;8.27;;;16.40;99.90;;;;;;5035354;28;20040;-76
2023/05/25 07:21:36;;;;;;;17.00;9.90;;;16.50;99.90;;;;;;5033584;28;20025;-75
2023/05/25 07:24:03;;;;;;;18.27;10.65;;;16.30;99.90;;;;;;5033492;28;20112;-76
2023/05/25 07:26:32;;;;;;;19.05;10.68;;;16.50;99.90;;;;;;5017212;28;20474;-75
2023/05/25 07:28:59;;;;;;;16.60;10.75;;;16.70;99.90;;;;;;5017407;28;20112;-76
2023/05/25 07:31:25;;;;;;;15.50;8.32;;;16.80;99.90;;;;;;5032654;28;20033;-76
2023/05/25 07:33:52;;;;;;;19.88;10.73;;;17.00;99.90;;;;;;5033624;28;20056;-75
2023/05/25 07:36:18;;;;;;;19.92;10.27;;;16.90;99.90;;;;;;5033026;28;20021;-76
2023/05/25 07:38:46;;;;;;;16.75;9.30;;;17.10;99.90;;;;;;5050009;28;20025;-76
2023/05/25 07:41:12;;;;;;;17.70;9.57;;;17.10;99.90;;;;;;5033487;28;20037;-76
2023/05/25 07:43:39;;;;;;;14.05;9.63;;;17.30;99.90;;;;;;5033722;28;20375;-76
2023/05/25 07:46:05;;;;;;;18.90;10.13;;;17.30;99.90;;;;;;5032614;28;20046;-75
2023/05/25 07:48:31;;;;;;;18.70;10.88;;;17.30;99.90;;;;;;5049429;28;20033;-75
2023/05/25 07:50:58;;;;;;;13.90;8.70;;;17.40;99.90;;;;;;5046186;28;20037;-76
2023/05/25 07:53:24;;;;;;;16.75;9.45;;;17.50;99.90;;;;;;5034559;28;20096;-76
2023/05/25 07:55:50;;;;;;;13.98;8.45;;;17.50;99.90;;;;;;5033227;28;20034;-76
2023/05/25 07:58:16;;;;;;;10.63;6.85;;;17.50;99.90;;;;;;5033302;28;20036;-76
2023/05/25 08:00:43;;;;;;;17.52;9.52;;;17.30;99.90;;;;;;5032543;28;20037;-76
2023/05/25 08:03:09;;;;;;;15.55;8.10;;;17.30;99.90;;;;;;5033292;28;20029;-76
2023/05/25 08:05:35;;;;;;;16.13;8.10;;;17.40;99.90;;;;;;5032436;28;20017;-75
2023/05/25 08:08:02;;;;;;;9.82;7.40;;;17.60;99.90;;;;;;5034587;28;20490;-76
2023/05/25 08:10:31;;;;;;;18.50;8.60;;;17.90;99.90;;;;;;5033964;28;20046;-76
2023/05/25 08:12:57;;;;;;;9.85;6.45;;;17.90;99.90;;;;;;5033129;28;20434;-76
2023/05/25 08:15:24;;;;;;;14.35;8.93;;;17.90;99.90;;;;;;5015600;28;20034;-76
2023/05/25 08:17:50;;;;;;;10.38;7.47;;;18.00;99.90;;;;;;5033089;28;20367;-76
2023/05/25 08:20:16;;;;;;;8.90;6.20;;;18.20;99.90;;;;;;5032422;28;20030;-76
2023/05/25 08:22:42;;;;;;;17.48;8.20;;;18.20;99.90;;;;;;5033030;28;20377;-75
2023/05/25 08:25:08;;;;;;;17.30;8.38;;;18.20;99.90;;;;;;5032689;28;20481;-76
2023/05/25 08:27:35;;;;;;;14.40;7.45;;;18.30;99.90;;;;;;5032307;28;20045;-76
2023/05/25 08:30:01;;;;;;;12.57;7.57;;;18.30;99.90;;;;;;5015980;28;20056;-76
2023/05/25 08:32:27;;;;;;;9.65;7.45;;;18.20;99.90;;;;;;5032798;28;20036;-76
2023/05/25 08:34:53;;;;;;;8.60;7.60;;;18.30;99.90;;;;;;5032273;28;20025;-76
2023/05/25 08:37:22;;;;;;;15.30;8.00;;;18.50;99.90;;;;;;5032324;28;20033;-76
2023/05/25 08:39:48;;;;;;;13.65;7.95;;;18.50;99.90;;;;;;5031724;28;20041;-75
2023/05/25 08:42:14;;;;;;;16.52;7.97;;;18.50;99.90;;;;;;5032250;28;20386;-75
2023/05/25 08:44:41;;;;;;;12.05;7.80;;;18.50;99.90;;;;;;5032379;28;20021;-75
2023/05/25 08:47:07;;;;;;;12.18;7.05;;;18.50;99.90;;;;;;5037114;28;20052;-75
2023/05/25 08:49:37;;;;;;;15.30;8.00;;;18.50;99.90;;;;;;5051097;28;20048;-76
2023/05/25 08:52:03;;;;;;;14.60;8.55;;;18.50;99.90;;;;;;5052405;28;20505;-76
2023/05/25 08:54:36;;;;;;;11.80;7.32;;;18.60;99.90;;;;;;5048808;28;20045;-75
2023/05/25 08:57:51;;;;;;;10.48;8.00;;;18.60;99.90;;;;;;5048517;28;20486;-76
2023/05/25 09:00:18;;;;;;;11.57;8.35;;;18.80;99.90;;;;;;5026598;28;20487;-76
2023/05/25 09:02:49;;;;;;;7.25;6.60;;;18.60;99.90;;;;;;5015554;28;20041;-75
2023/05/25 09:05:15;;;;;;;12.85;7.47;;;18.40;99.90;;;;;;5031514;28;20343;-76
2023/05/25 09:07:42;;;;;;;13.70;9.32;;;18.60;99.90;;;;;;5033271;28;20037;-76
2023/05/25 09:10:09;;;;;;;12.38;8.18;;;18.60;99.90;;;;;;5015461;28;20052;-76
2023/05/25 09:12:35;;;;;;;15.13;9.18;;;18.90;99.90;;;;;;5031662;28;20033;-75
2023/05/25 09:15:02;;;;;;;12.10;9.10;;;19.10;99.70;;;;;;5031920;28;20025;-76
2023/05/25 09:17:28;;;;;;;7.32;6.82;;;19.00;98.90;;;;;;5030668;28;20044;-75
2023/05/25 09:19:54;;;;;;;6.80;6.22;;;18.80;98.80;;;;;;5032509;28;20029;-75
2023/05/25 09:22:20;;;;;;;9.55;7.40;;;18.50;98.50;;;;;;5031544;28;20034;-75
2023/05/25 09:24:46;;;;;;;11.77;8.43;;;18.20;98.90;;;;;;5015106;28;20045;-76
2023/05/25 09:27:19;;;;;;;8.32;7.18;;;18.40;99.00;;;;;;5031505;28;20021;-75
2023/05/25 09:29:49;;;;;;;8.85;6.43;;;18.60;98.50;;;;;;5031697;28;20041;-75
2023/05/25 09:32:16;;;;;;;10.38;6.10;;;18.70;98.20;;;;;;5030588;28;20030;-75
2023/05/25 09:34:43;;;;;;;8.82;6.82;;;18.80;98.30;;;;;;5031384;28;20029;-75
2023/05/25 09:37:12;;;;;;;14.52;8.00;;;19.00;98.20;;;;;;5030575;28;20030;-76
2023/05/25 09:39:40;;;;;;;8.20;7.50;;;19.20;97.80;;;;;;5031383;28;20029;-76
2023/05/25 09:42:06;;;;;;;8.80;7.85;;;19.20;97.10;;;;;;5014268;28;20041;-76
2023/05/25 09:44:32;;;;;;;10.05;7.68;;;19.30;96.20;;;;;;5032584;28;20037;-75
2023/05/25 09:46:58;;;;;;;12.95;8.63;;;19.40;96.80;;;;;;5034360;28;20045;-76
2023/05/25 09:49:25;;;;;;;9.55;8.50;;;19.50;96.30;;;;;;5051209;28;20029;-76
2023/05/25 09:51:51;;;;;;;9.27;8.43;;;19.40;95.50;;;;;;5037000;28;20036;-77
2023/05/25 09:54:17;;;;;;;12.35;9.43;;;19.40;95.00;;;;;;5014577;28;20414;-76
2023/05/25 09:56:43;;;;;;;9.98;8.00;;;19.40;95.40;;;;;;5032407;28;20462;-76
2023/05/25 09:59:10;;;;;;;10.13;8.00;;;19.40;95.40;;;;;;5031267;28;20029;-76
2023/05/25 10:01:36;;;;;;;10.40;8.40;;;19.50;95.30;;;;;;5029964;28;20048;-76
2023/05/25 10:04:02;;;;;;;8.50;7.80;;;19.70;96.00;;;;;;5031301;28;20045;-76
2023/05/25 10:06:29;;;;;;;19.45;18.30;;;19.70;94.20;;;;;;5030897;28;20422;-75
2023/05/25 10:08:56;;;;;;;9.23;8.43;;;19.80;92.60;;;;;;5014699;28;20022;-76
2023/05/25 10:11:23;;;;;;;9.45;8.60;;;19.80;92.60;;;;;;5030936;28;20131;-76
2023/05/25 10:13:50;;;;;;;9.45;8.52;;;20.00;91.80;;;;;;5032276;28;20466;-76
2023/05/25 10:16:17;;;;;;;9.38;8.25;;;20.10;91.40;;;;;;5013241;28;20057;-76
2023/05/25 10:18:47;;;;;;;11.10;8.48;;;20.00;91.30;;;;;;5030889;28;20021;-76
2023/05/25 10:21:14;;;;;;;7.63;7.13;;;20.00;91.70;;;;;;5030436;28;20037;-75
2023/05/25 10:23:44;;;;;;;10.30;9.18;;;20.20;90.70;;;;;;5030806;28;20034;-76
2023/05/25 10:26:11;;;;;;;10.23;9.27;;;20.10;90.50;;;;;;5013469;28;20442;-76
2023/05/25 10:28:38;;;;;;;9.90;9.10;;;20.20;90.80;;;;;;5032076;28;20025;-76
2023/05/25 10:31:04;;;;;;;12.00;9.10;;;20.30;90.50;;;;;;5013217;28;20049;-76
2023/05/25 10:33:31;;;;;;;10.10;8.77;;;20.50;90.30;;;;;;5030381;28;20036;-75
2023/05/25 10:35:57;;;;;;;9.80;8.90;;;20.50;90.50;;;;;;5013873;28;20029;-76
2023/05/25 10:38:25;;;;;;;10.60;9.55;;;20.70;90.50;;;;;;5030657;28;20033;-76
2023/05/25 10:40:53;;;;;;;11.27;10.27;;;20.80;90.10;;;;;;5030403;28;20030;-76
2023/05/25 10:43:19;;;;;;;10.57;9.07;;;20.90;90.20;;;;;;5030773;28;20037;-76
2023/05/25 10:45:46;;;;;;;10.00;9.18;;;20.90;89.00;;;;;;5029262;28;20033;-76
2023/05/25 10:48:13;;;;;;;9.25;8.65;;;20.90;89.10;;;;;;5043763;28;20025;-75
2023/05/25 10:50:39;;;;;;;10.50;9.25;;;20.80;88.40;;;;;;5049767;28;20040;-75
2023/05/25 10:53:06;;;;;;;11.18;9.38;;;20.70;89.20;;;;;;5035805;28;20026;-76
2023/05/25 10:55:59;;;;;;;10.55;9.75;;;20.80;89.30;;;;;;5034144;28;20458;-76
2023/05/25 10:58:26;;;;;;;8.80;8.27;;;20.90;88.20;;;;;;5035494;28;20034;-76
2023/05/25 11:01:05;;;;;;;11.85;10.35;;;21.00;87.40;;;;;;5033267;28;20037;-75
2023/05/25 11:03:46;;;;;;;13.43;8.98;;;20.90;88.00;;;;;;5034167;28;20025;-75
2023/05/25 11:06:16;;;;;;;12.93;9.50;;;21.00;87.10;;;;;;5035278;28;20037;-76
2023/05/25 11:08:58;;;;;;;10.77;9.77;;;20.90;87.20;;;;;;5034395;28;20031;-76
2023/05/25 11:11:43;;;;;;;9.45;8.75;;;21.00;86.50;;;;;;5033740;28;20045;-76
2023/05/25 11:14:28;;;;;;;10.50;9.43;;;21.10;86.70;;;;;;5034850;28;20029;-76
2023/05/25 11:17:09;;;;;;;10.35;9.32;;;21.00;86.70;;;;;;5034021;28;20041;-76
2023/05/25 11:19:47;;;;;;;10.07;8.88;;;21.10;87.10;;;;;;5035195;28;20029;-75
2023/05/25 11:22:22;;;;;;;11.65;9.05;;;21.20;85.20;;;;;;5034821;28;20044;-76
2023/05/25 11:24:51;;;;;;;9.25;8.65;;;21.20;84.40;;;;;;5035217;28;20462;-76
2023/05/25 11:27:28;;;;;;;10.32;9.18;;;21.00;83.90;;;;;;5034741;28;20041;-76
2023/05/25 11:29:57;;;;;;;10.25;9.32;;;21.00;83.90;;;;;;5033596;28;20030;-75
2023/05/25 11:32:24;;;;;;;9.98;8.95;;;21.10;83.90;;;;;;5032971;28;20029;-76
2023/05/25 11:34:51;;;;;;;11.13;10.23;;;21.30;83.40;;;;;;5017431;28;20472;-76
2023/05/25 11:37:21;;;;;;;10.27;9.48;;;21.40;83.40;;;;;;5033507;28;20097;-76
2023/05/25 11:39:48;;;;;;;12.10;10.00;;;21.60;84.00;;;;;;5017856;28;20025;-76
2023/05/25 11:42:15;;;;;;;12.38;10.45;;;21.60;82.40;;;;;;5033207;28;20036;-76
2023/05/25 11:44:42;;;;;;;10.60;9.80;;;21.60;82.90;;;;;;5033218;28;20025;-76
2023/05/25 11:47:12;;;;;;;12.20;11.38;;;21.60;83.30;;;;;;5032671;28;20054;-76
2023/05/25 11:49:43;;;;;;;11.35;10.45;;;21.60;81.80;;;;;;5033671;28;20037;-76
2023/05/25 11:52:09;;;;;;;;;;;21.60;82.60;;;;;;5034112;28;20478;-76
2023/05/25 11:54:36;;;;;;;12.32;9.32;;;21.80;82.40;;;;;;5066550;28;20282;-76
2023/05/25 11:57:02;;;;;;;10.82;10.10;;;21.70;81.20;;;;;;5051005;28;20339;-76
2023/05/25 11:59:28;;;;;;;11.45;10.50;;;21.70;81.80;;;;;;5029588;28;20053;-76
2023/05/25 12:01:59;;;;;;;12.35;11.27;;;21.70;80.30;;;;;;5015239;28;20037;-76
2023/05/25 12:04:25;;;;;;;11.32;10.27;;;21.60;80.50;;;;;;5033283;28;20028;-76
2023/05/25 12:06:51;;;;;;;11.38;10.43;;;21.50;80.20;;;;;;5035545;28;20041;-76
2023/05/25 12:09:21;;;;;;;14.00;10.73;;;21.70;80.00;;;;;;5029684;28;20360;-76
2023/05/25 12:11:47;;;;;;;11.98;11.00;;;21.80;79.90;;;;;;5042667;28;20037;-76
2023/05/25 12:14:13;;;;;;;12.15;11.05;;;21.90;80.10;;;;;;5066304;28;20056;-75
2023/05/25 12:16:39;;;;;;;12.45;11.32;;;22.00;79.40;;;;;;5048427;28;20033;-76
2023/05/25 12:19:12;;;;;;;9.85;9.20;;;22.10;79.60;;;;;;5049434;28;20032;-76
2023/05/25 12:21:41;;;;;;;12.15;11.20;;;22.00;77.50;;;;;;5032435;28;20501;-75
2023/05/25 12:24:08;;;;;;;12.23;10.95;;;22.00;78.90;;;;;;5049515;28;20037;-76
2023/05/25 12:26:34;;;;;;;14.02;12.55;;;22.00;80.00;;;;;;5037196;28;20048;-75
2023/05/25 12:29:01;;;;;;;13.38;12.18;;;22.20;80.80;;;;;;5029360;28;20041;-76
2023/05/25 12:31:33;;;;;;;13.55;12.07;;;22.50;79.40;;;;;;5028340;28;20049;-76
2023/05/25 12:34:05;;;;;;;11.95;11.13;;;22.30;78.00;;;;;;5064531;28;20028;-76
2023/05/25 12:36:38;;;;;;;12.50;11.57;;;22.40;78.20;;;;;;5033408;28;20032;-76
2023/05/25 12:39:05;;;;;;;18.30;17.05;;;22.40;77.30;;;;;;5033022;28;20025;-76